Aviation Digital Data Service (ADDS)

Output produced by METARs form (1341 UTC 19 April 2018)
found at http://aviationweather.gov/adds/metars/
 
KACY 191127Z 1912/2012 01010G20KT P6SM OVC035 
     FM191500 34012G20KT P6SM OVC035 
     FM191800 31012G20KT P6SM -SHRA OVC025 
     FM192200 31012G20KT P6SM BKN045 
     FM200200 30010G18KT P6SM SCT045